25 de septiembre de 2022

Hora Código Tiempo Temp. Visibilidad Cielo nuboso Viento METAR/SPECI
01:00
V
13 °C 10 km+ 6.400 ft 150° 150° 2 kt METAR LFLC 242300Z AUTO 15002KT 9999 -RA FEW040/// SCT047/// BKN064/// ///TCU 13/12 Q1014 TEMPO 4000 RA BKN010 OVC035
00:30
V
13 °C 10 km+ 4.800 ft 180° 180° 2 kt METAR LFLC 242230Z AUTO 18002KT 9999 -RA SCT042/// BKN048/// OVC060/// //////CB 13/12 Q1014 TEMPO 4000 RA BKN010 OVC035
00:00
V
13 °C 10 km+ 5.400 ft Var 000° 0 kt METAR LFLC 242200Z AUTO 00000KT 9999 FEW048/// BKN054/// BKN070/// //////TCU 13/12 Q1014 TEMPO SHRA

24 de septiembre de 2022

Hora Código Tiempo Temp. Visibilidad Cielo nuboso Viento METAR/SPECI
23:30
V
13 °C 10 km+ 4.800 ft 060° 060° 3 kt METAR LFLC 242130Z AUTO 06003KT 9999 BKN048/// BKN060/// BKN100/// //////CB 13/12 Q1014 TEMPO SHRA
23:00
V
13 °C 10 km+ 4.400 ft 060° 060° 4 kt METAR LFLC 242100Z AUTO 06004KT 9999 BKN044/// BKN070/// BKN096/// //////CB 13/11 Q1014 TEMPO SHRA
22:30
V
14 °C 10 km+ 6.600 ft 020° 020° 4 kt METAR LFLC 242030Z AUTO 02004KT 9999 FEW041/// BKN066/// OVC084/// //////TCU 14/11 Q1014 TEMPO SHRA
22:00
V
15 °C 10 km+ 5.600 ft Var Var 2 kt METAR LFLC 242000Z AUTO VRB02KT 9999 FEW041/// BKN056/// BKN068/// ///CB 15/10 Q1014 TEMPO SHRA
21:30
V
14 °C 10 km+ 5.200 ft 040° 040° 4 kt METAR LFLC 241930Z AUTO 04004KT 340V070 9999 FEW045/// BKN052/// OVC092/// //////CB 14/12 Q1013 TEMPO SHRA
21:00
V
14 °C 10 km+ 5.600 ft 130° 130° 2 kt METAR LFLC 241900Z AUTO 13002KT 9999 BKN056/// BKN074/// OVC088/// //////TCU 14/12 Q1013 TEMPO 4000 TSRA SCT040CB BKN045
20:30
V
14 °C 10 km+ 7.400 ft 010° 010° 2 kt METAR LFLC 241830Z AUTO 01002KT 9999 SCT052/// BKN074/// BKN088/// //////CB 14/12 Q1013 TEMPO 4000 TSRA
20:00
V
14 °C 10 km+ 6.800 ft Var Var 2 kt METAR LFLC 241800Z AUTO VRB02KT 9999 FEW050/// BKN068/// BKN100/// //////CB 14/12 Q1013 TEMPO 4000 TSRA
19:30
V
15 °C 10 km+ 6.600 ft Var Var 1 kt METAR LFLC 241730Z AUTO VRB01KT 9999 FEW052/// OVC066/// //////CB 15/12 Q1012 TEMPO 4000 TSRA
19:00
V
15 °C 10 km+ 5.800 ft 070° 070° 8 kt METAR LFLC 241700Z AUTO 07008KT 9999 FEW018/// BKN058/// BKN074/// //////CB 15/12 Q1012 TEMPO 4000 TSRA
18:30
V
16 °C 10 km+ 5.800 ft 120° 120° 5 kt METAR LFLC 241630Z AUTO 12005KT 050V170 9999 -RA FEW029/// OVC058/// //////CB 16/12 Q1012 TEMPO 4000 TSRA
18:00
I
17 °C 3,8 km 4.900 ft 330° 330° 5 kt METAR LFLC 241600Z AUTO 33005KT 290V360 9000 3800 RA FEW037/// BKN049/// BKN060/// ///CB 17/12 Q1012 TEMPO 4000 TSRA
17:30
V
19 °C 10 km+ 5.800 ft 090° 090° 6 kt METAR LFLC 241530Z AUTO 09006KT 040V110 9999 BKN058/// BKN078/// BKN100/// //////TCU 19/09 Q1012 TEMPO 4000 TSRA SCT040CB BKN060
17:00
V
19 °C 10 km+ 7.000 ft 110° 110° 7 kt METAR LFLC 241500Z AUTO 11007KT 9999 FEW036/// SCT060/// BKN070/// //////TCU 19/09 Q1012 TEMPO 4000 TSRA SCT040CB BKN060
16:30
V
20 °C 10 km+ 6.000 ft 120° 120° 8 kt METAR LFLC 241430Z AUTO 12008KT 9999 FEW023/// BKN060/// BKN098/// //////TCU 20/09 Q1012 TEMPO 4000 TSRA SCT040CB BKN060
16:00
V
20 °C 10 km+ 5.800 ft 040° 040° 5 kt METAR LFLC 241400Z AUTO 04005KT 010V070 9999 BKN058/// BKN070/// BKN082/// //////CB 20/08 Q1012 TEMPO 4000 TSRA
15:30
V
21 °C 10 km+ 5.800 ft 360° 360° 6 kt METAR LFLC 241330Z AUTO 36006KT 320V030 9999 BKN058 BKN230 21/09 Q1012 TEMPO 4000 TSRA SCT040CB BKN060
15:00
I
22 °C 4,9 km - Var Var 2 kt METAR LFLC 241300Z AUTO VRB02KT 9999 4900 FEW062/// SCT092/// ///CB 22/08 Q1012 TEMPO SHRA
14:30
V
21 °C 10 km+ - Var Var 3 kt METAR LFLC 241230Z AUTO VRB03KT 9999 ///TCU 21/08 Q1012 TEMPO SHRA
14:00
V
21 °C 10 km+ - Var Var 2 kt METAR LFLC 241200Z AUTO VRB02KT 9999 //////CB 21/08 Q1013 TEMPO SHRA
13:30
V
20 °C 10 km+ - 200° 200° 4 kt METAR LFLC 241130Z AUTO 20004KT 140V290 CAVOK 20/09 Q1013 TEMPO SHRA SCT040TCU BKN060
13:00
V
20 °C 10 km+ - 160° 160° 5 kt METAR LFLC 241100Z AUTO 16005KT 090V250 9999 FEW050 20/09 Q1013 TEMPO TSRA SCT055CB
12:30
V
20 °C 10 km+ - 190° 190° 5 kt METAR LFLC 241030Z AUTO 19005KT 140V220 CAVOK 20/10 Q1013 TEMPO TSRA SCT055CB
12:00
V
19 °C 10 km+ - 150° 150° 5 kt METAR LFLC 241000Z AUTO 15005KT 080V210 CAVOK 19/10 Q1014 NOSIG
11:30
V
19 °C 10 km+ - 150° 150° 5 kt METAR LFLC 240930Z AUTO 15005KT 110V200 CAVOK 19/11 Q1014 NOSIG
11:00
V
18 °C 10 km+ - 170° 170° 6 kt METAR LFLC 240900Z AUTO 17006KT 140V200 CAVOK 18/11 Q1014 NOSIG
10:30
V
17 °C 10 km+ - 170° 170° 7 kt METAR LFLC 240830Z AUTO 17007KT 9999 FEW010 17/11 Q1014 NOSIG
10:00
V
16 °C 10 km+ - 160° 160° 6 kt METAR LFLC 240800Z AUTO 16006KT 110V220 CAVOK 16/11 Q1014 NOSIG
09:30
V
14 °C 10 km+ - 150° 150° 6 kt METAR LFLC 240730Z AUTO 15006KT 110V180 CAVOK 14/11 Q1014 NOSIG
09:00
V
13 °C 10 km+ - 180° 180° 9 kt METAR LFLC 240700Z AUTO 18009KT CAVOK 13/11 Q1014 NOSIG
08:30
V
13 °C 10 km+ - 190° 190° 10 kt METAR LFLC 240630Z AUTO 19010KT CAVOK 13/11 Q1014 NOSIG
08:00
V
13 °C 10 km+ - 170° 170° 3 kt METAR LFLC 240600Z AUTO 17003KT 110V210 CAVOK 13/11 Q1014 NOSIG
07:30
V
12 °C 10 km+ - 130° 130° 3 kt METAR LFLC 240530Z AUTO 13003KT 070V190 CAVOK 12/11 Q1014 NOSIG
07:00
V
12 °C 10 km+ - Var Var 2 kt METAR LFLC 240500Z AUTO VRB02KT CAVOK 12/11 Q1014 NOSIG
06:30
V
12 °C 10 km+ - Var Var 2 kt METAR LFLC 240430Z AUTO VRB02KT CAVOK 12/11 Q1014 NOSIG
06:00
V
12 °C 10 km+ - 030° 030° 1 kt METAR LFLC 240400Z AUTO 03001KT CAVOK 12/10 Q1014 NOSIG
05:30
V
12 °C 10 km+ - 220° 220° 3 kt METAR LFLC 240330Z AUTO 22003KT 150V320 CAVOK 12/10 Q1014 NOSIG
05:00
V
12 °C 10 km+ - Var Var 1 kt METAR LFLC 240300Z AUTO VRB01KT CAVOK 12/10 Q1014 NOSIG
04:30
V
13 °C 10 km+ - Var Var 2 kt METAR LFLC 240230Z AUTO VRB02KT CAVOK 13/11 Q1014 NOSIG
04:00
V
12 °C 10 km+ - 020° 020° 1 kt METAR LFLC 240200Z AUTO 02001KT CAVOK 12/11 Q1014 NOSIG
03:30
V
13 °C 10 km+ - Var Var 3 kt METAR LFLC 240130Z AUTO VRB03KT CAVOK 13/11 Q1014 NOSIG
03:00
V
13 °C 10 km+ - Var Var 2 kt METAR LFLC 240100Z AUTO VRB02KT 9999 FEW066 13/11 Q1014 NOSIG
02:30
V
14 °C 10 km+ - 180° 180° 6 kt METAR LFLC 240030Z AUTO 18006KT 150V210 CAVOK 14/11 Q1015 NOSIG
02:00
V
14 °C 10 km+ - 160° 160° 11 kt METAR LFLC 240000Z AUTO 16011KT CAVOK 14/11 Q1015 TEMPO BKN030 FEW040TCU
01:30
V
15 °C 10 km+ - 170° 170° 10 kt METAR LFLC 232330Z AUTO 17010KT 9999 //////TCU 15/12 Q1015 BECMG BKN050
01:00
V
15 °C 10 km+ - 180° 180° 13 kt METAR LFLC 232300Z AUTO 18013KT 9999 ///TCU 15/12 Q1015 TEMPO RA SCT070TCU FEW080CB
00:30
V
15 °C 10 km+ - 200° 200° 10 kt METAR LFLC 232230Z AUTO 20010KT 9999 //////TCU 15/12 Q1015 TEMPO RA SCT070TCU FEW080CB
00:00
V
15 °C 10 km+ 8.200 ft 180° 180° 13 kt METAR LFLC 232200Z AUTO 18013KT 9999 FEW058/// BKN082/// OVC100/// //////CB 15/12 Q1015 TEMPO RA

23 de septiembre de 2022

Hora Código Tiempo Temp. Visibilidad Cielo nuboso Viento METAR/SPECI
23:30
V
15 °C 10 km+ 10.000 ft 190° 190° 12 kt METAR LFLC 232130Z AUTO 19012KT 160V220 9999 FEW050/// OVC100/// //////CB 15/13 Q1016 TEMPO RA
23:00
V
16 °C 10 km+ 9.800 ft 180° 180° 16 kt METAR LFLC 232100Z AUTO 18016KT 9999 SCT054/// BKN098/// BKN110/// ///TCU 16/12 Q1016 TEMPO RA SCT070TCU FEW080CB
22:30
V
16 °C 10 km+ 11.000 ft 180° 180° 18 kt METAR LFLC 232030Z AUTO 18018KT 9999 FEW054/// BKN110/// //////CB 16/12 Q1015 TEMPO RA
22:00
V
17 °C 10 km+ 12.000 ft 180° 180° 17 kt METAR LFLC 232000Z AUTO 18017KT 9999 FEW058/// OVC120/// //////TCU 17/12 Q1015 TEMPO RA SCT070TCU FEW080CB
21:30
V
18 °C 10 km+ 6.200 ft 190° 190° 12 kt METAR LFLC 231930Z AUTO 19012KT 9999 BKN062/// BKN084/// OVC100/// //////TCU 18/12 Q1015 TEMPO RA SCT070TCU FEW080CB
21:00
V
18 °C 10 km+ - 170° 170° 3 kt METAR LFLC 231900Z AUTO 17003KT 130V210 9999 //////CB 18/11 Q1015 TEMPO RA
20:30
V
18 °C 10 km+ 12.000 ft Var Var 2 kt METAR LFLC 231830Z AUTO VRB02KT 9999 FEW064 BKN120 18/11 Q1014 TEMPO RA SCT070TCU FEW080CB
20:00
V
19 °C 10 km+ 6.400 ft 020° 020° 2 kt METAR LFLC 231800Z AUTO 02002KT 9999 -RA BKN064/// OVC110/// ///TCU 19/11 Q1014 TEMPO 18010KT RA SCT070TCU FEW080CB
19:30
V
20 °C 10 km+ 11.000 ft 350° 350° 2 kt METAR LFLC 231730Z AUTO 35002KT 9999 FEW012 BKN110 20/11 Q1014 TEMPO 18010KT RA SCT070TCU FEW080CB
19:00
V
21 °C 10 km+ 11.000 ft Var Var 2 kt METAR LFLC 231700Z AUTO VRB02KT 9999 FEW001 BKN110 BKN130 21/11 Q1014 TEMPO SHRA SCT070TCU
18:30
V
22 °C 10 km+ - 310° 310° 4 kt METAR LFLC 231630Z AUTO 31004KT 280V340 CAVOK 22/10 Q1014 TEMPO SHRA SCT070TCU
18:00
V
22 °C 10 km+ - 290° 290° 5 kt METAR LFLC 231600Z AUTO 29005KT CAVOK 22/10 Q1015 TEMPO SHRA SCT070TCU
17:30
V
23 °C 10 km+ 13.000 ft 280° 280° 4 kt METAR LFLC 231530Z AUTO 28004KT 240V330 9999 FEW064 SCT076 BKN130 23/09 Q1015 TEMPO SHRA SCT070TCU
17:00
V
23 °C 10 km+ 15.000 ft 300° 300° 3 kt METAR LFLC 231500Z AUTO 30003KT 270V350 9999 SCT064 BKN150 23/10 Q1015 TEMPO SHRA SCT070TCU
16:30
V
23 °C 10 km+ - Var Var 2 kt METAR LFLC 231430Z AUTO VRB02KT CAVOK 23/10 Q1015 TEMPO SHRA SCT070TCU
16:00
V
23 °C 10 km+ - Var Var 2 kt METAR LFLC 231400Z AUTO VRB02KT CAVOK 23/10 Q1015 TEMPO SHRA SCT070TCU
15:30
V
23 °C 10 km+ 6.600 ft Var Var 2 kt METAR LFLC 231330Z AUTO VRB02KT 9999 BKN066 BKN080 BKN200 23/11 Q1016 TEMPO SHRA SCT070TCU
15:00
V
23 °C 10 km+ 23.000 ft Var Var 3 kt METAR LFLC 231300Z AUTO VRB03KT 9999 FEW066 BKN230 23/09 Q1016 NOSIG
14:30
V
24 °C 10 km+ - Var Var 3 kt METAR LFLC 231230Z AUTO VRB03KT CAVOK 24/10 Q1016 NOSIG
14:00
V
23 °C 10 km+ - 120° 120° 4 kt METAR LFLC 231200Z AUTO 12004KT CAVOK 23/09 Q1016 NOSIG
13:30
V
22 °C 10 km+ - 170° 170° 5 kt METAR LFLC 231130Z AUTO 17005KT 130V210 CAVOK 22/09 Q1016 NOSIG
13:00
V
21 °C 10 km+ 22.000 ft 180° 180° 7 kt METAR LFLC 231100Z AUTO 18007KT 9999 SCT066 BKN220 BKN240 21/10 Q1017 BECMG 27010KT
12:30
V
20 °C 10 km+ - 180° 180° 5 kt METAR LFLC 231030Z AUTO 18005KT 130V280 CAVOK 20/10 Q1017 NOSIG
12:00
V
18 °C 10 km+ - 170° 170° 6 kt METAR LFLC 231000Z AUTO 17006KT 140V210 CAVOK 18/10 Q1017 NOSIG
11:30
V
17 °C 10 km+ - 170° 170° 6 kt METAR LFLC 230930Z AUTO 17006KT 140V210 CAVOK 17/09 Q1018 NOSIG
11:00
V
17 °C 10 km+ - 150° 150° 3 kt METAR LFLC 230900Z AUTO 15003KT 110V230 CAVOK 17/09 Q1018 NOSIG
10:30
V
16 °C 10 km+ - 180° 180° 5 kt METAR LFLC 230830Z AUTO 18005KT 130V230 CAVOK 16/08 Q1018 NOSIG
10:00
V
15 °C 10 km+ - 140° 140° 6 kt METAR LFLC 230800Z AUTO 14006KT 110V220 CAVOK 15/08 Q1017 NOSIG
09:30
V
13 °C 10 km+ - 170° 170° 8 kt METAR LFLC 230730Z AUTO 17008KT 120V220 9999 NSC 13/07 Q1017 NOSIG
09:00
V
12 °C 10 km+ - Var Var 3 kt METAR LFLC 230700Z AUTO VRB03KT CAVOK 12/07 Q1017 NOSIG
08:30
V
11 °C 10 km+ - Var Var 4 kt METAR LFLC 230630Z AUTO VRB04KT CAVOK 11/07 Q1018 NOSIG
08:00
V
11 °C 10 km+ - 010° 010° 3 kt METAR LFLC 230600Z AUTO 01003KT 280V070 CAVOK 11/07 Q1018 BECMG 18010KT
07:30
V
10 °C 10 km+ - 170° 170° 5 kt METAR LFLC 230530Z AUTO 17005KT 100V260 CAVOK 10/07 Q1018 NOSIG
07:00
V
10 °C 10 km+ - Var Var 3 kt METAR LFLC 230500Z AUTO VRB03KT CAVOK 10/07 Q1018 NOSIG
06:30
V
10 °C 10 km+ - Var Var 2 kt METAR LFLC 230430Z AUTO VRB02KT CAVOK 10/07 Q1018 NOSIG
06:00
V
10 °C 10 km+ - Var Var 2 kt METAR LFLC 230400Z AUTO VRB02KT CAVOK 10/07 Q1018 NOSIG
05:30
V
10 °C 10 km+ - Var Var 3 kt METAR LFLC 230330Z AUTO VRB03KT CAVOK 10/07 Q1018 NOSIG
05:00
V
10 °C 10 km+ - 360° 360° 4 kt METAR LFLC 230300Z AUTO 36004KT CAVOK 10/07 Q1018 BECMG 18010KT
04:30
V
11 °C 10 km+ - Var Var 5 kt METAR LFLC 230230Z AUTO VRB05KT CAVOK 11/07 Q1018 NOSIG
04:00
V
11 °C 10 km+ - Var Var 3 kt METAR LFLC 230200Z AUTO VRB03KT CAVOK 11/07 Q1018 NOSIG
03:30
V
10 °C 10 km+ - Var Var 1 kt METAR LFLC 230130Z AUTO VRB01KT CAVOK 10/07 Q1018 NOSIG
03:00
V
10 °C 10 km+ - Var Var 1 kt METAR LFLC 230100Z AUTO VRB01KT CAVOK 10/06 Q1018 NOSIG
02:30
V
11 °C 10 km+ - Var Var 2 kt METAR LFLC 230030Z AUTO VRB02KT CAVOK 11/07 Q1018 NOSIG
02:00
V
11 °C 10 km+ - Var Var 2 kt METAR LFLC 230000Z AUTO VRB02KT CAVOK 11/07 Q1018 NOSIG
01:30
V
10 °C 10 km+ - 260° 260° 4 kt METAR LFLC 222330Z AUTO 26004KT CAVOK 10/07 Q1018 NOSIG
01:00
V
11 °C 10 km+ - Var Var 2 kt METAR LFLC 222300Z AUTO VRB02KT CAVOK 11/07 Q1019 NOSIG
00:30
V
10 °C 10 km+ - 200° 200° 2 kt METAR LFLC 222230Z AUTO 20002KT CAVOK 10/06 Q1019 NOSIG
00:00
V
11 °C 10 km+ - 230° 230° 3 kt METAR LFLC 222200Z AUTO 23003KT CAVOK 11/07 Q1019 NOSIG

22 de septiembre de 2022

Hora Código Tiempo Temp. Visibilidad Cielo nuboso Viento METAR/SPECI
23:30
V
11 °C 10 km+ - 230° 230° 3 kt METAR LFLC 222130Z AUTO 23003KT CAVOK 11/07 Q1019 NOSIG
23:00
V
11 °C 10 km+ - 270° 270° 2 kt METAR LFLC 222100Z AUTO 27002KT CAVOK 11/08 Q1019 NOSIG
22:30
V
12 °C 10 km+ - 240° 240° 2 kt METAR LFLC 222030Z AUTO 24002KT CAVOK 12/07 Q1019 NOSIG
22:00
V
12 °C 10 km+ - 260° 260° 3 kt METAR LFLC 222000Z AUTO 26003KT CAVOK 12/07 Q1019 NOSIG
21:30
V
12 °C 10 km+ - Var Var 2 kt METAR LFLC 221930Z AUTO VRB02KT CAVOK 12/07 Q1019 NOSIG
21:00
V
16 °C 10 km+ - 310° 310° 2 kt METAR LFLC 221900Z AUTO 31002KT CAVOK 16/08 Q1019 NOSIG
20:30
V
16 °C 10 km+ - 330° 330° 3 kt METAR LFLC 221830Z AUTO 33003KT CAVOK 16/08 Q1019 NOSIG
20:00
V
17 °C 10 km+ - 030° 030° 4 kt METAR LFLC 221800Z AUTO 03004KT CAVOK 17/07 Q1018 NOSIG
19:30
V
19 °C 10 km+ - 050° 050° 5 kt METAR LFLC 221730Z AUTO 05005KT CAVOK 19/07 Q1018 NOSIG
19:00
V
21 °C 10 km+ - 060° 060° 7 kt METAR LFLC 221700Z AUTO 06007KT CAVOK 21/08 Q1018 NOSIG
18:30
V
21 °C 10 km+ - 060° 060° 7 kt METAR LFLC 221630Z AUTO 06007KT 030V100 CAVOK 21/08 Q1018 NOSIG
18:00
V
23 °C 10 km+ - 050° 050° 6 kt METAR LFLC 221600Z AUTO 05006KT 010V100 CAVOK 23/08 Q1018 NOSIG
17:30
V
23 °C 10 km+ - Var Var 3 kt METAR LFLC 221530Z AUTO VRB03KT CAVOK 23/08 Q1018 NOSIG
17:00
V
22 °C 10 km+ - 030° 030° 4 kt METAR LFLC 221500Z AUTO 03004KT 320V080 CAVOK 22/07 Q1018 NOSIG
Datos más antiguos

Nosotros y terceros seguimos tu comportamiento en Internet en nuestro sitio web con cookies. Si continúas, asumimos que estás de acuerdo con nuestra política de cookies. Más información